createdAt,value
2023-05-21T00:00:20.773Z,88301.00
2023-05-21T00:01:20.748Z,88297.00
2023-05-21T00:02:20.789Z,88295.00
2023-05-21T00:03:20.728Z,88295.00
2023-05-21T00:04:20.690Z,88287.00
2023-05-21T00:05:20.692Z,88289.00
2023-05-21T00:06:20.784Z,88289.00
2023-05-21T00:07:20.750Z,88291.00
2023-05-21T00:08:20.804Z,88295.00
2023-05-21T00:09:20.921Z,88287.00
2023-05-21T00:10:20.878Z,88293.00
2023-05-21T00:11:20.904Z,88293.00
2023-05-21T00:12:20.878Z,88287.00
2023-05-21T00:13:20.876Z,88289.00
2023-05-21T00:14:20.856Z,88287.00
2023-05-21T00:15:20.846Z,88286.00
2023-05-21T00:16:20.958Z,88289.00
2023-05-21T00:17:20.819Z,88289.00
2023-05-21T00:18:20.803Z,88291.00
2023-05-21T00:19:20.801Z,88287.00
2023-05-21T00:20:20.793Z,88287.00
2023-05-21T00:21:20.854Z,88289.00
2023-05-21T00:22:20.899Z,88284.00
2023-05-21T00:23:20.973Z,88282.00
2023-05-21T00:24:21.015Z,88282.00
2023-05-21T00:25:21.067Z,88284.00
2023-05-21T00:26:21.129Z,88284.00
2023-05-21T00:27:21.173Z,88282.00
2023-05-21T00:28:21.241Z,88286.00
2023-05-21T00:29:21.292Z,88286.00
2023-05-21T00:30:21.360Z,88286.00
2023-05-21T00:31:21.417Z,88286.00
2023-05-21T00:32:21.418Z,88286.00
2023-05-21T00:33:21.421Z,88289.00
2023-05-21T00:34:21.466Z,88287.00
2023-05-21T00:35:21.462Z,88282.00
2023-05-21T00:36:21.489Z,88282.00
2023-05-21T00:37:21.524Z,88280.00
2023-05-21T00:38:21.562Z,88280.00
2023-05-21T00:39:21.597Z,88276.00
2023-05-21T00:40:21.639Z,88280.00
2023-05-21T00:41:21.679Z,88276.00
2023-05-21T00:42:21.734Z,88274.00
2023-05-21T00:43:21.781Z,88282.00
2023-05-21T00:44:21.834Z,88280.00
2023-05-21T00:45:21.890Z,88282.00
2023-05-21T00:46:21.970Z,88280.00
2023-05-21T00:47:22.056Z,88280.00
2023-05-21T00:48:22.087Z,88276.00
2023-05-21T00:49:22.132Z,88276.00
2023-05-21T00:50:22.197Z,88276.00
2023-05-21T00:51:22.256Z,88280.00
2023-05-21T00:52:22.313Z,88284.00
2023-05-21T00:53:22.314Z,88278.00
2023-05-21T00:54:22.281Z,88278.00
2023-05-21T00:55:22.280Z,88280.00
2023-05-21T00:56:22.280Z,88278.00
2023-05-21T00:57:22.260Z,88274.00
2023-05-21T00:58:22.248Z,88276.00
2023-05-21T00:59:22.250Z,88276.00
2023-05-21T01:00:22.226Z,88278.00
2023-05-21T01:01:22.269Z,88276.00
2023-05-21T01:02:22.289Z,88276.00
2023-05-21T01:03:22.336Z,88270.00
2023-05-21T01:04:22.322Z,88268.00
2023-05-21T01:05:22.381Z,88268.00
2023-05-21T01:06:22.422Z,88266.00
2023-05-21T01:07:22.475Z,88264.00
2023-05-21T01:08:22.537Z,88268.00
2023-05-21T01:09:22.584Z,88266.00
2023-05-21T01:10:22.618Z,88266.00
2023-05-21T01:11:22.673Z,88266.00
2023-05-21T01:12:22.708Z,88268.00
2023-05-21T01:13:22.750Z,88262.00
2023-05-21T01:14:22.816Z,88266.00
2023-05-21T01:15:22.859Z,88264.00
2023-05-21T01:16:22.948Z,88262.00
2023-05-21T01:17:22.995Z,88264.00
2023-05-21T01:18:23.051Z,88264.00
2023-05-21T01:19:23.126Z,88266.00
2023-05-21T01:20:23.180Z,88264.00
2023-05-21T01:21:23.201Z,88262.00
2023-05-21T01:22:23.249Z,88260.00
2023-05-21T01:23:23.276Z,88260.00
2023-05-21T01:24:23.348Z,88254.00
2023-05-21T01:25:23.382Z,88258.00
2023-05-21T01:26:23.444Z,88254.00
2023-05-21T01:27:23.481Z,88252.00
2023-05-21T01:28:23.515Z,88256.00
2023-05-21T01:29:23.593Z,88258.00
2023-05-21T01:30:23.651Z,88256.00
2023-05-21T01:31:23.723Z,88256.00
2023-05-21T01:32:23.752Z,88260.00
2023-05-21T01:33:23.818Z,88256.00
2023-05-21T01:34:23.841Z,88254.00
2023-05-21T01:35:23.885Z,88254.00
2023-05-21T01:36:24.037Z,88252.00
2023-05-21T01:37:23.985Z,88256.00
2023-05-21T01:38:24.057Z,88260.00
2023-05-21T01:39:24.099Z,88260.00
2023-05-21T01:40:24.162Z,88254.00
2023-05-21T01:41:24.201Z,88250.00
2023-05-21T01:42:24.260Z,88252.00
2023-05-21T01:43:24.327Z,88252.00
2023-05-21T01:44:24.360Z,88256.00
2023-05-21T01:45:24.397Z,88254.00
2023-05-21T01:46:24.465Z,88256.00
2023-05-21T01:47:24.532Z,88256.00
2023-05-21T01:48:24.552Z,88256.00
2023-05-21T01:49:24.615Z,88260.00
2023-05-21T01:50:24.686Z,88260.00
2023-05-21T01:51:24.725Z,88260.00
2023-05-21T01:52:24.792Z,88258.00
2023-05-21T01:53:24.838Z,88254.00
2023-05-21T01:54:24.902Z,88254.00
2023-05-21T01:55:25.127Z,88254.00
2023-05-21T01:56:24.975Z,88254.00
2023-05-21T01:57:25.013Z,88256.00
2023-05-21T01:58:25.069Z,88258.00
2023-05-21T01:59:25.149Z,88250.00
2023-05-21T02:00:25.180Z,88258.00
2023-05-21T02:01:25.275Z,88254.00
2023-05-21T02:02:25.436Z,88252.00
2023-05-21T02:03:25.415Z,88246.00
2023-05-21T02:04:25.312Z,88248.00
2023-05-21T02:05:25.297Z,88244.00
2023-05-21T02:06:25.260Z,88248.00
2023-05-21T02:07:25.260Z,88244.00
2023-05-21T02:08:25.248Z,88236.00
2023-05-21T02:09:25.250Z,88244.00
2023-05-21T02:10:25.236Z,88246.00
2023-05-21T02:11:25.227Z,88244.00
2023-05-21T02:12:25.231Z,88244.00
2023-05-21T02:13:26.833Z,88242.00
2023-05-21T02:14:25.354Z,88238.00
2023-05-21T02:15:25.424Z,88236.00
2023-05-21T02:16:25.502Z,88235.00
2023-05-21T02:17:25.608Z,88231.00
2023-05-21T02:18:25.619Z,88233.00
2023-05-21T02:19:25.688Z,88240.00
2023-05-21T02:20:25.732Z,88233.00
2023-05-21T02:21:25.827Z,88229.00
2023-05-21T02:22:25.831Z,88221.00
2023-05-21T02:23:25.901Z,88223.00
2023-05-21T02:24:25.941Z,88227.00
2023-05-21T02:25:26.028Z,88219.00
2023-05-21T02:26:26.067Z,88229.00
2023-05-21T02:27:26.123Z,88229.00
2023-05-21T02:28:26.207Z,88233.00
2023-05-21T02:29:26.224Z,88221.00
2023-05-21T02:30:26.286Z,88225.00
2023-05-21T02:31:26.334Z,88227.00
2023-05-21T02:32:26.438Z,88221.00
2023-05-21T02:33:26.473Z,88213.00
2023-05-21T02:34:26.546Z,88213.00
2023-05-21T02:35:26.575Z,88204.00
2023-05-21T02:36:26.604Z,88215.00
2023-05-21T02:37:26.670Z,88204.00
2023-05-21T02:38:26.750Z,88206.00
2023-05-21T02:39:26.783Z,88213.00
2023-05-21T02:40:26.841Z,88206.00
2023-05-21T02:41:26.865Z,88202.00
2023-05-21T02:42:26.884Z,88202.00
2023-05-21T02:43:26.955Z,88198.00
2023-05-21T02:44:27.004Z,88213.00
2023-05-21T02:45:27.032Z,88213.00
2023-05-21T02:46:27.098Z,88215.00
2023-05-21T02:47:27.164Z,88213.00
2023-05-21T02:48:27.179Z,88213.00
2023-05-21T02:49:27.249Z,88215.00
2023-05-21T02:50:27.305Z,88221.00
2023-05-21T02:51:27.357Z,88217.00
2023-05-21T02:52:27.393Z,88221.00
2023-05-21T02:53:27.464Z,88223.00
2023-05-21T02:54:27.515Z,88223.00
2023-05-21T02:55:27.588Z,88217.00
2023-05-21T02:56:27.645Z,88221.00
2023-05-21T02:57:27.702Z,88223.00
2023-05-21T02:58:27.756Z,88225.00
2023-05-21T02:59:27.813Z,88223.00
2023-05-21T03:00:27.919Z,88223.00
2023-05-21T03:01:28.015Z,88221.00
2023-05-21T03:02:28.052Z,88223.00
2023-05-21T03:03:28.234Z,88221.00
2023-05-21T03:04:28.121Z,88223.00
2023-05-21T03:05:28.181Z,88229.00
2023-05-21T03:06:28.227Z,88223.00
2023-05-21T03:07:28.285Z,88223.00
2023-05-21T03:08:28.357Z,88217.00
2023-05-21T03:09:28.407Z,88221.00
2023-05-21T03:10:28.454Z,88221.00
2023-05-21T03:11:28.519Z,88219.00
2023-05-21T03:12:28.530Z,88223.00
2023-05-21T03:13:28.597Z,88227.00
2023-05-21T03:14:28.618Z,88231.00
2023-05-21T03:15:28.692Z,88227.00
2023-05-21T03:16:28.795Z,88227.00
2023-05-21T03:17:28.820Z,88225.00
2023-05-21T03:18:28.847Z,88229.00
2023-05-21T03:19:28.934Z,88229.00
2023-05-21T03:20:28.954Z,88227.00
2023-05-21T03:21:28.968Z,88223.00
2023-05-21T03:22:28.996Z,88223.00
2023-05-21T03:23:29.061Z,88227.00
2023-05-21T03:24:29.124Z,88227.00
2023-05-21T03:25:29.187Z,88229.00
2023-05-21T03:26:29.226Z,88229.00
2023-05-21T03:27:29.289Z,88219.00
2023-05-21T03:28:29.335Z,88225.00
2023-05-21T03:29:29.426Z,88233.00
2023-05-21T03:30:29.440Z,88231.00
2023-05-21T03:31:29.490Z,88235.00
2023-05-21T03:32:29.549Z,88229.00
2023-05-21T03:33:29.604Z,88229.00
2023-05-21T03:34:29.650Z,88233.00
2023-05-21T03:35:29.734Z,88236.00
2023-05-21T03:36:29.763Z,88235.00
2023-05-21T03:37:29.835Z,88231.00
2023-05-21T03:38:29.887Z,88233.00
2023-05-21T03:39:29.929Z,88238.00
2023-05-21T03:40:30.009Z,88233.00
2023-05-21T03:41:30.050Z,88233.00
2023-05-21T03:42:30.133Z,88233.00
2023-05-21T03:43:30.175Z,88238.00
2023-05-21T03:44:30.218Z,88244.00
2023-05-21T03:45:30.264Z,88240.00
2023-05-21T03:46:30.346Z,88235.00
2023-05-21T03:47:30.385Z,88238.00
2023-05-21T03:48:30.395Z,88236.00
2023-05-21T03:49:30.437Z,88240.00
2023-05-21T03:50:30.511Z,88240.00
2023-05-21T03:51:30.560Z,88244.00
2023-05-21T03:52:30.618Z,88248.00
2023-05-21T03:53:30.666Z,88246.00
2023-05-21T03:54:30.714Z,88246.00
2023-05-21T03:55:30.776Z,88250.00
2023-05-21T03:56:30.808Z,88250.00
2023-05-21T03:57:30.862Z,88250.00
2023-05-21T03:58:30.887Z,88248.00
2023-05-21T03:59:30.943Z,88246.00
2023-05-21T04:00:31.003Z,88244.00
2023-05-21T04:01:31.061Z,88244.00
2023-05-21T04:02:31.123Z,88240.00
2023-05-21T04:03:31.282Z,88240.00
2023-05-21T04:04:31.180Z,88244.00
2023-05-21T04:05:31.214Z,88250.00
2023-05-21T04:06:31.223Z,88248.00
2023-05-21T04:07:31.228Z,88250.00
2023-05-21T04:08:31.256Z,88246.00
2023-05-21T04:09:31.322Z,88242.00
2023-05-21T04:10:31.341Z,88244.00
2023-05-21T04:11:31.386Z,88246.00
2023-05-21T04:12:31.414Z,88244.00
2023-05-21T04:13:31.443Z,88244.00
2023-05-21T04:14:31.468Z,88240.00
2023-05-21T04:15:31.504Z,88246.00
2023-05-21T04:16:31.705Z,88246.00
2023-05-21T04:17:31.620Z,88242.00
2023-05-21T04:18:31.646Z,88240.00
2023-05-21T04:19:31.776Z,88242.00
2023-05-21T04:20:31.718Z,88242.00
2023-05-21T04:21:31.757Z,88242.00
2023-05-21T04:22:31.868Z,88244.00
2023-05-21T04:23:31.870Z,88246.00
2023-05-21T04:24:31.907Z,88246.00
2023-05-21T04:25:31.932Z,88246.00
2023-05-21T04:26:31.985Z,88240.00
2023-05-21T04:27:32.045Z,88242.00
2023-05-21T04:28:32.113Z,88242.00
2023-05-21T04:29:32.173Z,88248.00
2023-05-21T04:30:32.233Z,88246.00
2023-05-21T04:31:32.362Z,88250.00
2023-05-21T04:32:32.340Z,88252.00
2023-05-21T04:33:32.385Z,88250.00
2023-05-21T04:34:32.453Z,88246.00
2023-05-21T04:35:32.502Z,88242.00
2023-05-21T04:36:32.547Z,88244.00
2023-05-21T04:37:32.616Z,88240.00
2023-05-21T04:38:32.669Z,88242.00
2023-05-21T04:39:32.747Z,88238.00
2023-05-21T04:40:32.809Z,88240.00
2023-05-21T04:41:32.779Z,88244.00
2023-05-21T04:42:32.774Z,88248.00
2023-05-21T04:43:32.752Z,88242.00
2023-05-21T04:44:32.750Z,88244.00
2023-05-21T04:45:32.812Z,88238.00
2023-05-21T04:46:32.746Z,88236.00
2023-05-21T04:47:32.732Z,88238.00
2023-05-21T04:48:32.715Z,88240.00
2023-05-21T04:49:32.690Z,88235.00
2023-05-21T04:50:32.668Z,88236.00
2023-05-21T04:51:32.662Z,88231.00
2023-05-21T04:52:32.625Z,88235.00
2023-05-21T04:53:32.631Z,88231.00
2023-05-21T04:54:32.631Z,88227.00
2023-05-21T04:55:32.606Z,88233.00
2023-05-21T04:56:32.593Z,88225.00
2023-05-21T04:57:32.580Z,88227.00
2023-05-21T04:58:32.570Z,88231.00
2023-05-21T04:59:32.563Z,88231.00
2023-05-21T05:00:32.564Z,88235.00
2023-05-21T05:01:32.533Z,88236.00
2023-05-21T05:02:32.560Z,88235.00
2023-05-21T05:03:32.582Z,88235.00
2023-05-21T05:04:32.526Z,88235.00
2023-05-21T05:05:32.495Z,88231.00
2023-05-21T05:06:32.497Z,88227.00
2023-05-21T05:07:32.550Z,88227.00
2023-05-21T05:08:32.558Z,88233.00
2023-05-21T05:09:32.592Z,88229.00
2023-05-21T05:10:32.672Z,88231.00
2023-05-21T05:11:32.693Z,88229.00
2023-05-21T05:12:32.754Z,88229.00
2023-05-21T05:13:32.741Z,88231.00
2023-05-21T05:14:32.732Z,88225.00
2023-05-21T05:15:32.729Z,88229.00
2023-05-21T05:16:32.747Z,88225.00
2023-05-21T05:17:32.775Z,88221.00
2023-05-21T05:18:32.697Z,88225.00
2023-05-21T05:19:32.729Z,88223.00
2023-05-21T05:20:32.682Z,88219.00
2023-05-21T05:21:32.675Z,88221.00
2023-05-21T05:22:32.745Z,88221.00
2023-05-21T05:23:32.813Z,88223.00
2023-05-21T05:24:32.868Z,88227.00
2023-05-21T05:25:32.922Z,88223.00
2023-05-21T05:26:32.969Z,88225.00
2023-05-21T05:27:33.038Z,88227.00
2023-05-21T05:28:33.089Z,88231.00
2023-05-21T05:29:33.158Z,88229.00
2023-05-21T05:30:33.233Z,88227.00
2023-05-21T05:31:33.337Z,88227.00
2023-05-21T05:32:33.389Z,88227.00
2023-05-21T05:33:33.320Z,88233.00
2023-05-21T05:34:33.311Z,88229.00
2023-05-21T05:35:33.376Z,88229.00
2023-05-21T05:36:33.287Z,88229.00
2023-05-21T05:37:33.281Z,88227.00
2023-05-21T05:38:33.268Z,88229.00
2023-05-21T05:39:33.258Z,88231.00
2023-05-21T05:40:33.245Z,88223.00
2023-05-21T05:41:33.225Z,88223.00
2023-05-21T05:42:33.222Z,88221.00
2023-05-21T05:43:33.211Z,88215.00
2023-05-21T05:44:33.197Z,88221.00
2023-05-21T05:45:33.199Z,88217.00
2023-05-21T05:46:33.223Z,88221.00
2023-05-21T05:47:33.203Z,88219.00
2023-05-21T05:48:33.152Z,88221.00
2023-05-21T05:49:33.144Z,88219.00
2023-05-21T05:50:33.132Z,88215.00
2023-05-21T05:51:33.124Z,88215.00
2023-05-21T05:52:33.127Z,88221.00
2023-05-21T05:53:33.185Z,88217.00
2023-05-21T05:54:33.244Z,88219.00
2023-05-21T05:55:33.314Z,88217.00
2023-05-21T05:56:33.347Z,88215.00
2023-05-21T05:57:33.414Z,88213.00
2023-05-21T05:58:33.489Z,88215.00
2023-05-21T05:59:33.526Z,88206.00
2023-05-21T06:00:33.590Z,88213.00
2023-05-21T06:01:33.645Z,88215.00
2023-05-21T06:02:33.779Z,88219.00
2023-05-21T06:03:33.830Z,88217.00
2023-05-21T06:04:33.796Z,88215.00
2023-05-21T06:05:33.876Z,88217.00
2023-05-21T06:06:33.878Z,88206.00
2023-05-21T06:07:33.932Z,88206.00
2023-05-21T06:08:35.030Z,88213.00
2023-05-21T06:09:33.958Z,88215.00
2023-05-21T06:10:33.941Z,88213.00
2023-05-21T06:11:33.924Z,88217.00
2023-05-21T06:12:33.918Z,88206.00
2023-05-21T06:13:33.914Z,88200.00
2023-05-21T06:14:33.890Z,88204.00
2023-05-21T06:15:33.935Z,88204.00
2023-05-21T06:16:34.039Z,88206.00
2023-05-21T06:17:33.886Z,88215.00
2023-05-21T06:18:33.829Z,88215.00
2023-05-21T06:19:33.913Z,88217.00
2023-05-21T06:20:33.792Z,88217.00
2023-05-21T06:21:33.775Z,88213.00
2023-05-21T06:22:33.777Z,88204.00
2023-05-21T06:23:33.739Z,88204.00
2023-05-21T06:24:33.727Z,88213.00
2023-05-21T06:25:33.784Z,88217.00
2023-05-21T06:26:33.708Z,88225.00
2023-05-21T06:27:33.687Z,88219.00
2023-05-21T06:28:33.676Z,88221.00
2023-05-21T06:29:33.642Z,88217.00
2023-05-21T06:30:33.652Z,88219.00
2023-05-21T06:31:33.606Z,88221.00
2023-05-21T06:32:33.665Z,88217.00
2023-05-21T06:33:33.636Z,88219.00
2023-05-21T06:34:33.575Z,88213.00
2023-05-21T06:35:33.551Z,88217.00
2023-05-21T06:36:33.566Z,88215.00
2023-05-21T06:37:33.532Z,88221.00
2023-05-21T06:38:33.516Z,88223.00
2023-05-21T06:39:33.492Z,88227.00
2023-05-21T06:40:33.490Z,88225.00
2023-05-21T06:41:33.457Z,88229.00
2023-05-21T06:42:33.455Z,88229.00
2023-05-21T06:43:33.429Z,88229.00
2023-05-21T06:44:33.425Z,88227.00
2023-05-21T06:45:33.415Z,88229.00
2023-05-21T06:46:33.443Z,88225.00
2023-05-21T06:47:33.462Z,88227.00
2023-05-21T06:48:33.360Z,88229.00
2023-05-21T06:49:33.330Z,88233.00
2023-05-21T06:50:33.333Z,88233.00
2023-05-21T06:51:33.297Z,88231.00
2023-05-21T06:52:33.292Z,88229.00
2023-05-21T06:53:33.261Z,88229.00
2023-05-21T06:54:33.241Z,88231.00
2023-05-21T06:55:33.221Z,88227.00
2023-05-21T06:56:33.203Z,88225.00
2023-05-21T06:57:33.184Z,88223.00
2023-05-21T06:58:33.190Z,88225.00
2023-05-21T06:59:33.142Z,88223.00
2023-05-21T07:00:33.125Z,88225.00
2023-05-21T07:01:33.157Z,88233.00
2023-05-21T07:02:33.259Z,88227.00
2023-05-21T07:03:33.122Z,88236.00
2023-05-21T07:04:33.048Z,88235.00
2023-05-21T07:05:33.024Z,88235.00
2023-05-21T07:06:33.030Z,88231.00
2023-05-21T07:07:32.995Z,88233.00
2023-05-21T07:08:33.017Z,88233.00
2023-05-21T07:09:33.017Z,88231.00
2023-05-21T07:10:33.052Z,88233.00
2023-05-21T07:11:33.054Z,88233.00
2023-05-21T07:12:33.054Z,88231.00
2023-05-21T07:13:33.064Z,88233.00
2023-05-21T07:14:33.078Z,88231.00
2023-05-21T07:15:33.090Z,88229.00
2023-05-21T07:16:33.159Z,88227.00
2023-05-21T07:17:33.141Z,88233.00
2023-05-21T07:18:33.126Z,88229.00
2023-05-21T07:19:33.217Z,88231.00
2023-05-21T07:20:33.163Z,88235.00
2023-05-21T07:21:33.205Z,88233.00
2023-05-21T07:22:33.173Z,88238.00
2023-05-21T07:23:33.170Z,88235.00
2023-05-21T07:24:33.178Z,88235.00
2023-05-21T07:25:33.194Z,88233.00
2023-05-21T07:26:33.182Z,88233.00
2023-05-21T07:27:33.181Z,88235.00
2023-05-21T07:28:33.186Z,88235.00
2023-05-21T07:29:33.188Z,88231.00
2023-05-21T07:30:33.191Z,88233.00
2023-05-21T07:31:33.333Z,88235.00
2023-05-21T07:32:33.196Z,88235.00
2023-05-21T07:33:33.180Z,88233.00
2023-05-21T07:34:33.182Z,88233.00
2023-05-21T07:35:33.194Z,88235.00
2023-05-21T07:36:33.184Z,88236.00
2023-05-21T07:37:33.297Z,88233.00
2023-05-21T07:38:33.305Z,88227.00
2023-05-21T07:39:33.315Z,88227.00
2023-05-21T07:40:33.308Z,88227.00
2023-05-21T07:41:33.299Z,88225.00
2023-05-21T07:42:33.284Z,88229.00
2023-05-21T07:43:33.347Z,88227.00
2023-05-21T07:44:33.348Z,88229.00
2023-05-21T07:45:33.330Z,88225.00
2023-05-21T07:46:33.366Z,88227.00
2023-05-21T07:47:33.336Z,88221.00
2023-05-21T07:48:35.410Z,88227.00
2023-05-21T07:49:33.375Z,88223.00
2023-05-21T07:50:33.425Z,88231.00
2023-05-21T07:51:33.515Z,88233.00
2023-05-21T07:52:33.642Z,88233.00
2023-05-21T07:53:33.663Z,88231.00
2023-05-21T07:54:33.761Z,88233.00
2023-05-21T07:55:33.832Z,88227.00
2023-05-21T07:56:33.973Z,88229.00
2023-05-21T07:57:33.999Z,88231.00
2023-05-21T07:58:34.085Z,88231.00
2023-05-21T07:59:34.172Z,88227.00
2023-05-21T08:00:34.254Z,88231.00
2023-05-21T08:01:34.230Z,88223.00
2023-05-21T08:02:34.291Z,88219.00
2023-05-21T08:03:34.410Z,88221.00
2023-05-21T08:04:34.239Z,88213.00
2023-05-21T08:05:34.356Z,88221.00
2023-05-21T08:06:34.240Z,88223.00
2023-05-21T08:07:34.219Z,88223.00
2023-05-21T08:08:34.202Z,88219.00
2023-05-21T08:09:34.195Z,88221.00
2023-05-21T08:10:34.166Z,88215.00
2023-05-21T08:11:34.221Z,88221.00
2023-05-21T08:12:34.314Z,88223.00
2023-05-21T08:13:34.368Z,88217.00
2023-05-21T08:14:34.370Z,88219.00
2023-05-21T08:15:34.471Z,88221.00
2023-05-21T08:16:34.328Z,88219.00
2023-05-21T08:17:34.349Z,88217.00
2023-05-21T08:18:34.332Z,88217.00
2023-05-21T08:19:34.516Z,88204.00
2023-05-21T08:20:34.355Z,88213.00
2023-05-21T08:21:34.316Z,88213.00
2023-05-21T08:22:34.310Z,88213.00
2023-05-21T08:23:34.284Z,88219.00
2023-05-21T08:24:34.301Z,88217.00
2023-05-21T08:25:34.351Z,88217.00
2023-05-21T08:26:34.244Z,88225.00
2023-05-21T08:27:34.213Z,88219.00
2023-05-21T08:28:34.181Z,88217.00
2023-05-21T08:29:34.146Z,88219.00
2023-05-21T08:30:34.151Z,88221.00
2023-05-21T08:31:34.194Z,88206.00
2023-05-21T08:32:34.172Z,88200.00
2023-05-21T08:33:34.119Z,88202.00
2023-05-21T08:34:34.118Z,88200.00
2023-05-21T08:35:34.112Z,88202.00
2023-05-21T08:36:34.085Z,88206.00
2023-05-21T08:37:34.125Z,88206.00
2023-05-21T08:38:34.109Z,88206.00
2023-05-21T08:39:34.095Z,88213.00
2023-05-21T08:40:34.136Z,88213.00
2023-05-21T08:41:34.139Z,88206.00
2023-05-21T08:42:37.146Z,88219.00
2023-05-21T08:43:34.149Z,88219.00
2023-05-21T08:44:34.135Z,88219.00
2023-05-21T08:45:34.177Z,88219.00
2023-05-21T08:46:34.082Z,88221.00
2023-05-21T08:47:34.089Z,88215.00
2023-05-21T08:48:34.042Z,88219.00
2023-05-21T08:49:34.023Z,88221.00
2023-05-21T08:50:33.987Z,88225.00
2023-05-21T08:51:33.959Z,88223.00
2023-05-21T08:52:33.934Z,88225.00
2023-05-21T08:53:33.908Z,88223.00
2023-05-21T08:54:33.879Z,88225.00
2023-05-21T08:55:33.892Z,88227.00
2023-05-21T08:56:33.830Z,88231.00
2023-05-21T08:57:33.796Z,88233.00
2023-05-21T08:58:33.838Z,88236.00
2023-05-21T08:59:33.747Z,88231.00
2023-05-21T09:00:33.730Z,88225.00
2023-05-21T09:01:33.753Z,88227.00
2023-05-21T09:02:33.701Z,88229.00
2023-05-21T09:03:33.708Z,88231.00
2023-05-21T09:04:33.664Z,88238.00
2023-05-21T09:05:33.622Z,88231.00
2023-05-21T09:06:33.573Z,88231.00
2023-05-21T09:07:33.549Z,88231.00
2023-05-21T09:08:33.529Z,88236.00
2023-05-21T09:09:33.530Z,88238.00
2023-05-21T09:10:33.496Z,88238.00
2023-05-21T09:11:33.465Z,88235.00
2023-05-21T09:12:33.441Z,88233.00
2023-05-21T09:13:33.490Z,88236.00
2023-05-21T09:14:33.378Z,88235.00
2023-05-21T09:15:33.360Z,88233.00
2023-05-21T09:16:33.373Z,88233.00
2023-05-21T09:17:33.337Z,88233.00
2023-05-21T09:18:33.280Z,88235.00
2023-05-21T09:19:33.344Z,88235.00
2023-05-21T09:20:33.243Z,88233.00
2023-05-21T09:21:33.231Z,88229.00
2023-05-21T09:22:33.185Z,88231.00
2023-05-21T09:23:33.164Z,88233.00
2023-05-21T09:24:35.749Z,88225.00
2023-05-21T09:25:33.195Z,88229.00
2023-05-21T09:26:33.103Z,88229.00
2023-05-21T09:27:33.057Z,88227.00
2023-05-21T09:28:33.063Z,88227.00
2023-05-21T09:29:33.021Z,88225.00
2023-05-21T09:30:35.890Z,88227.00
2023-05-21T09:31:33.170Z,88231.00
2023-05-21T09:32:32.965Z,88229.00
2023-05-21T09:33:32.917Z,88229.00
2023-05-21T09:34:32.900Z,88223.00
2023-05-21T09:35:32.882Z,88223.00
2023-05-21T09:36:32.862Z,88219.00
2023-05-21T09:37:32.836Z,88223.00
2023-05-21T09:38:32.803Z,88215.00
2023-05-21T09:39:32.769Z,88217.00
2023-05-21T09:40:32.755Z,88217.00
2023-05-21T09:41:32.732Z,88219.00
2023-05-21T09:42:32.676Z,88217.00
2023-05-21T09:43:32.641Z,88223.00
2023-05-21T09:44:32.629Z,88221.00
2023-05-21T09:45:32.590Z,88227.00
2023-05-21T09:46:32.645Z,88229.00
2023-05-21T09:47:32.599Z,88225.00
2023-05-21T09:48:32.529Z,88225.00
2023-05-21T09:49:32.480Z,88225.00
2023-05-21T09:50:32.468Z,88223.00
2023-05-21T09:51:32.452Z,88229.00
2023-05-21T09:52:32.416Z,88225.00
2023-05-21T09:53:32.401Z,88225.00
2023-05-21T09:54:32.397Z,88221.00
2023-05-21T09:55:32.338Z,88217.00
2023-05-21T09:56:32.608Z,88217.00
2023-05-21T09:57:32.284Z,88215.00
2023-05-21T09:58:32.257Z,88221.00
2023-05-21T09:59:32.238Z,88217.00
2023-05-21T10:00:32.217Z,88221.00
2023-05-21T10:01:32.215Z,88215.00
2023-05-21T10:02:32.193Z,88217.00
2023-05-21T10:03:32.112Z,88215.00
2023-05-21T10:04:32.134Z,88215.00
2023-05-21T10:05:32.085Z,88223.00
2023-05-21T10:06:32.082Z,88217.00
2023-05-21T10:07:32.113Z,88217.00
2023-05-21T10:08:32.169Z,88215.00
2023-05-21T10:09:32.211Z,88213.00
2023-05-21T10:10:32.268Z,88204.00
2023-05-21T10:11:32.294Z,88204.00
2023-05-21T10:12:32.343Z,88204.00
2023-05-21T10:13:32.295Z,88215.00
2023-05-21T10:14:32.300Z,88213.00
2023-05-21T10:15:32.245Z,88215.00
2023-05-21T10:16:32.233Z,88206.00
2023-05-21T10:17:32.224Z,88206.00
2023-05-21T10:18:32.155Z,88206.00
2023-05-21T10:19:32.230Z,88204.00
2023-05-21T10:20:32.107Z,88213.00
2023-05-21T10:21:32.130Z,88219.00
2023-05-21T10:22:32.156Z,88215.00
2023-05-21T10:23:32.195Z,88215.00
2023-05-21T10:24:32.236Z,88219.00
2023-05-21T10:25:32.283Z,88215.00
2023-05-21T10:26:32.315Z,88221.00
2023-05-21T10:27:32.995Z,88219.00
2023-05-21T10:28:32.373Z,88219.00
2023-05-21T10:29:32.428Z,88215.00
2023-05-21T10:30:32.479Z,88217.00
2023-05-21T10:31:32.520Z,88217.00
2023-05-21T10:32:32.663Z,88215.00
2023-05-21T10:33:32.610Z,88217.00
2023-05-21T10:34:32.603Z,88215.00
2023-05-21T10:35:32.640Z,88217.00
2023-05-21T10:36:32.703Z,88213.00
2023-05-21T10:37:32.730Z,88202.00
2023-05-21T10:38:32.754Z,88202.00
2023-05-21T10:39:32.778Z,88198.00
2023-05-21T10:40:32.884Z,88200.00
2023-05-21T10:41:32.862Z,88198.00
2023-05-21T10:42:32.900Z,88196.00
2023-05-21T10:43:32.929Z,88196.00
2023-05-21T10:44:32.957Z,88192.00
2023-05-21T10:45:33.046Z,88198.00
2023-05-21T10:46:33.036Z,88202.00
2023-05-21T10:47:33.066Z,88196.00
2023-05-21T10:48:33.148Z,88196.00
2023-05-21T10:49:33.144Z,88196.00
2023-05-21T10:50:33.167Z,88194.00
2023-05-21T10:51:33.213Z,88192.00
2023-05-21T10:52:33.252Z,88192.00
2023-05-21T10:53:33.309Z,88188.00
2023-05-21T10:54:33.312Z,88194.00
2023-05-21T10:55:33.352Z,88192.00
2023-05-21T10:56:33.384Z,88190.00
2023-05-21T10:57:33.435Z,88190.00
2023-05-21T10:58:33.451Z,88192.00
2023-05-21T10:59:33.507Z,88194.00
2023-05-21T11:00:33.506Z,88192.00
2023-05-21T11:01:33.603Z,88190.00
2023-05-21T11:02:33.631Z,88190.00
2023-05-21T11:03:35.770Z,88190.00
2023-05-21T11:04:33.578Z,88192.00
2023-05-21T11:05:33.561Z,88198.00
2023-05-21T11:06:33.532Z,88196.00
2023-05-21T11:07:33.495Z,88200.00
2023-05-21T11:08:33.469Z,88194.00
2023-05-21T11:09:33.435Z,88200.00
2023-05-21T11:10:33.457Z,88198.00
2023-05-21T11:11:33.390Z,88194.00
2023-05-21T11:12:33.347Z,88194.00
2023-05-21T11:13:33.325Z,88196.00
2023-05-21T11:14:33.277Z,88194.00
2023-05-21T11:15:33.238Z,88190.00
2023-05-21T11:16:33.319Z,88190.00
2023-05-21T11:17:33.198Z,88188.00
2023-05-21T11:18:33.182Z,88186.00
2023-05-21T11:19:34.187Z,88186.00
2023-05-21T11:20:33.126Z,88186.00
2023-05-21T11:21:33.109Z,88184.00
2023-05-21T11:22:33.069Z,88184.00
2023-05-21T11:23:33.042Z,88184.00
2023-05-21T11:24:33.021Z,88186.00
2023-05-21T11:25:33.007Z,88184.00
2023-05-21T11:26:32.978Z,88186.00
2023-05-21T11:27:32.952Z,88184.00
2023-05-21T11:28:32.928Z,88182.00
2023-05-21T11:29:32.924Z,88182.00
2023-05-21T11:30:35.315Z,88184.00
2023-05-21T11:31:32.918Z,88182.00
2023-05-21T11:32:32.891Z,88180.00
2023-05-21T11:33:32.851Z,88176.00
2023-05-21T11:34:32.820Z,88178.00
2023-05-21T11:35:32.797Z,88178.00
2023-05-21T11:36:34.672Z,88176.00
2023-05-21T11:37:32.728Z,88180.00
2023-05-21T11:38:32.692Z,88174.00
2023-05-21T11:39:32.687Z,88174.00
2023-05-21T11:40:32.635Z,88172.00
2023-05-21T11:41:32.627Z,88174.00
2023-05-21T11:42:32.608Z,88174.00
2023-05-21T11:43:32.581Z,88172.00
2023-05-21T11:44:32.538Z,88172.00